Time;durP1;ratioP1;P1;durP2;ratioP2;P2;SDS_P1;SDS_P2;PMS_P1;PMS_P2;Temp;Humidity;BMP_temperature;BMP_pressure;BME280_temperature;BME280_humidity;BME280_pressure;Samples;Min_cycle;Max_cycle;Signal;HPM_P1;HPM_P2
2022/08/26 00:00:29;;;;;;;10.10;3.00;;;21.00;99.90;;;;;;5034130;28;20465;-63
2022/08/26 00:02:55;;;;;;;7.38;2.22;;;20.90;99.90;;;;;;5034654;28;20111;-64
2022/08/26 00:05:21;;;;;;;10.32;2.60;;;21.30;99.90;;;;;;5033804;28;20049;-63
2022/08/26 00:07:46;;;;;;;12.88;2.83;;;20.90;99.90;;;;;;5031713;28;20048;-64
2022/08/26 00:10:12;;;;;;;9.05;2.20;;;20.90;99.90;;;;;;5031986;28;20495;-64
2022/08/26 00:12:39;;;;;;;13.88;2.60;;;21.20;99.90;;;;;;5033660;28;20450;-63
2022/08/26 00:15:07;;;;;;;9.80;2.50;;;21.00;99.90;;;;;;5034746;28;20041;-64
2022/08/26 00:17:33;;;;;;;11.00;2.58;;;21.10;99.90;;;;;;5033012;28;20031;-63
2022/08/26 00:19:59;;;;;;;11.13;2.60;;;21.30;99.90;;;;;;5033899;28;20064;-63
2022/08/26 00:22:25;;;;;;;9.55;2.42;;;21.20;99.90;;;;;;5032649;28;20053;-63
2022/08/26 00:24:50;;;;;;;13.52;2.97;;;21.20;99.90;;;;;;5034529;28;20037;-64
2022/08/26 00:27:16;;;;;;;11.63;2.58;;;21.20;99.90;;;;;;5032095;28;20048;-63
2022/08/26 00:29:41;;;;;;;18.85;2.97;;;21.20;99.90;;;;;;5033242;28;20040;-63
2022/08/26 00:32:07;;;;;;;13.05;2.58;;;21.00;99.90;;;;;;5033974;28;20047;-63
2022/08/26 00:34:33;;;;;;;12.40;2.40;;;21.00;99.90;;;;;;5033050;28;20037;-63
2022/08/26 00:36:59;;;;;;;9.05;2.00;;;21.20;99.90;;;;;;5031221;28;20034;-64
2022/08/26 00:39:25;;;;;;;10.82;2.13;;;21.20;99.90;;;;;;5030182;28;20045;-64
2022/08/26 00:41:50;;;;;;;14.20;2.50;;;20.90;99.90;;;;;;5032389;28;20037;-64
2022/08/26 00:44:16;;;;;;;9.52;1.75;;;21.00;99.90;;;;;;5034016;28;20037;-64
2022/08/26 00:46:46;;;;;;;11.43;2.25;;;21.20;99.90;;;;;;5030527;28;20041;-63
2022/08/26 00:49:22;;;;;;;9.27;2.08;;;21.10;99.90;;;;;;5030037;28;20076;-64
2022/08/26 00:51:56;;;;;;;9.48;2.10;;;21.00;99.90;;;;;;5032404;28;20076;-64
2022/08/26 00:54:25;;;;;;;12.07;2.38;;;20.90;99.90;;;;;;5032791;28;20140;-63
2022/08/26 00:56:56;;;;;;;5.72;1.60;;;21.00;99.90;;;;;;5025820;28;20037;-64
2022/08/26 00:59:24;;;;;;;6.90;1.85;;;21.00;99.90;;;;;;5031927;28;20047;-63
2022/08/26 01:01:50;;;;;;;9.35;2.28;;;20.90;99.90;;;;;;5032808;28;20051;-64
2022/08/26 01:04:19;;;;;;;10.95;3.15;;;21.00;99.90;;;;;;5015475;28;20487;-64
2022/08/26 01:06:46;;;;;;;7.13;1.52;;;21.20;99.90;;;;;;5032418;28;20387;-64
2022/08/26 01:09:12;;;;;;;13.02;1.98;;;20.90;99.90;;;;;;5031080;28;20525;-63
2022/08/26 01:11:38;;;;;;;5.78;1.52;;;21.20;99.90;;;;;;5031718;28;20038;-63
2022/08/26 01:14:06;;;;;;;11.20;1.90;;;21.20;99.90;;;;;;5033491;28;20391;-64
2022/08/26 01:16:32;;;;;;;11.02;1.73;;;21.00;99.90;;;;;;5033326;28;20033;-63
2022/08/26 01:19:02;;;;;;;7.82;1.95;;;21.00;99.90;;;;;;5029482;28;20597;-63
2022/08/26 01:21:42;;;;;;;10.40;2.13;;;21.00;99.90;;;;;;5028953;28;20045;-63
2022/08/26 01:24:09;;;;;;;10.50;1.95;;;21.10;99.90;;;;;;5021233;28;20045;-63
2022/08/26 01:26:41;;;;;;;11.13;1.83;;;21.20;99.90;;;;;;5013451;28;20117;-63
2022/08/26 01:29:13;;;;;;;6.28;1.70;;;21.20;99.90;;;;;;5016587;28;20072;-63
2022/08/26 01:31:45;;;;;;;8.75;1.63;;;21.00;99.90;;;;;;5032799;28;20076;-64
2022/08/26 01:34:18;;;;;;;9.23;2.00;;;21.20;99.90;;;;;;5031589;28;20045;-63
2022/08/26 01:36:44;;;;;;;12.35;2.40;;;21.00;99.90;;;;;;5029451;28;20049;-63
2022/08/26 01:39:10;;;;;;;15.57;2.55;;;21.20;99.90;;;;;;5032335;28;20068;-63
2022/08/26 01:41:36;;;;;;;12.55;2.10;;;21.20;99.90;;;;;;5015093;28;20080;-63
2022/08/26 01:44:05;;;;;;;10.98;1.88;;;21.30;99.90;;;;;;5020016;28;20553;-63
2022/08/26 01:46:31;;;;;;;11.93;2.22;;;21.20;99.90;;;;;;5031135;28;20502;-63
2022/08/26 01:49:01;;;;;;;17.45;2.65;;;21.10;99.90;;;;;;5029993;28;20044;-63
2022/08/26 01:51:28;;;;;;;9.05;2.40;;;21.20;99.90;;;;;;5032142;28;20034;-63
2022/08/26 01:53:54;;;;;;;13.27;1.90;;;21.20;99.90;;;;;;5031220;28;20044;-63
2022/08/26 01:56:22;;;;;;;14.82;2.15;;;21.10;99.90;;;;;;5032621;28;20033;-63
2022/08/26 01:58:52;;;;;;;11.95;2.55;;;21.30;99.90;;;;;;5030610;28;20068;-64
2022/08/26 02:01:20;;;;;;;19.73;3.22;;;21.20;99.90;;;;;;5031608;28;20056;-63
2022/08/26 02:04:06;;;;;;;12.07;2.65;;;21.30;99.90;;;;;;5032195;28;20052;-63
2022/08/26 02:06:34;;;;;;;15.20;2.53;;;21.30;99.90;;;;;;5031310;28;20495;-63
2022/08/26 02:09:01;;;;;;;14.07;2.30;;;21.30;99.90;;;;;;5027561;28;20044;-63
2022/08/26 02:11:27;;;;;;;12.73;3.53;;;21.20;99.90;;;;;;5016855;28;20049;-63
2022/08/26 02:14:00;;;;;;;12.05;2.50;;;21.20;99.90;;;;;;5012544;28;20049;-63
2022/08/26 02:16:30;;;;;;;11.48;2.10;;;21.10;99.90;;;;;;5032231;28;20030;-63
2022/08/26 02:18:58;;;;;;;10.30;2.47;;;21.10;99.90;;;;;;5029200;28;20037;-63
2022/08/26 02:21:24;;;;;;;10.20;2.03;;;21.00;99.90;;;;;;5030349;28;20471;-63
2022/08/26 02:23:50;;;;;;;10.65;2.22;;;21.00;99.90;;;;;;5012993;28;20135;-63
2022/08/26 02:26:19;;;;;;;12.73;2.38;;;21.20;99.90;;;;;;5012250;28;20042;-63
2022/08/26 02:29:09;;;;;;;7.35;2.25;;;20.90;99.90;;;;;;5019241;28;20491;-63
2022/08/26 02:31:34;;;;;;;9.90;2.50;;;21.20;99.90;;;;;;5031206;28;20068;-63
2022/08/26 02:34:09;;;;;;;18.45;2.80;;;20.90;99.90;;;;;;5030748;28;20037;-63
2022/08/26 02:36:34;;;;;;;11.65;2.80;;;20.90;99.90;;;;;;5029560;28;20108;-64
2022/08/26 02:39:00;;;;;;;13.98;2.80;;;20.80;99.90;;;;;;5010645;28;20429;-63
2022/08/26 02:41:25;;;;;;;17.10;3.35;;;20.90;99.90;;;;;;5031851;28;20124;-63
2022/08/26 02:43:51;;;;;;;14.43;2.80;;;20.70;99.90;;;;;;5031671;28;20076;-63
2022/08/26 02:46:16;;;;;;;16.17;3.42;;;20.70;99.90;;;;;;5031466;28;20078;-63
2022/08/26 02:48:42;;;;;;;14.50;2.40;;;20.70;99.90;;;;;;5024689;28;20045;-63
2022/08/26 02:51:07;;;;;;;9.27;2.15;;;20.90;99.90;;;;;;5030645;28;20048;-63
2022/08/26 02:53:33;;;;;;;9.13;1.80;;;20.90;99.90;;;;;;5031345;28;20052;-63
2022/08/26 02:55:58;;;;;;;15.65;2.30;;;20.90;99.90;;;;;;5030332;28;20041;-64
2022/08/26 02:58:24;;;;;;;11.70;2.30;;;21.00;99.90;;;;;;5019152;28;20508;-63
2022/08/26 03:00:49;;;;;;;10.52;1.90;;;20.90;99.90;;;;;;5026417;28;20052;-63
2022/08/26 03:03:15;;;;;;;10.60;2.35;;;20.80;99.90;;;;;;5012120;28;20049;-63
2022/08/26 03:05:41;;;;;;;8.43;2.08;;;20.70;99.90;;;;;;5031566;28;20034;-63
2022/08/26 03:08:10;;;;;;;14.55;2.58;;;20.90;99.90;;;;;;5029357;28;20372;-63
2022/08/26 03:10:36;;;;;;;13.73;2.35;;;20.90;99.90;;;;;;5019870;28;20054;-64
2022/08/26 03:13:02;;;;;;;10.80;2.17;;;20.90;99.90;;;;;;5018168;28;20049;-63
2022/08/26 03:15:28;;;;;;;9.60;2.03;;;20.90;99.90;;;;;;5030898;28;20041;-63
2022/08/26 03:17:54;;;;;;;12.73;2.35;;;20.80;99.90;;;;;;5028259;28;20057;-63
2022/08/26 03:20:19;;;;;;;8.85;2.13;;;20.80;99.90;;;;;;5030874;28;20065;-63
2022/08/26 03:22:45;;;;;;;13.20;2.50;;;20.60;99.90;;;;;;5031022;28;20044;-63
2022/08/26 03:25:13;;;;;;;10.65;2.13;;;20.60;99.90;;;;;;5031619;28;20107;-63
2022/08/26 03:27:39;;;;;;;13.93;2.38;;;20.80;99.90;;;;;;5026677;28;20038;-63
2022/08/26 03:32:50;;;;;;;11.85;2.15;;;20.70;99.90;;;;;;5026033;28;20692;-63
2022/08/26 03:35:16;;;;;;;11.63;2.20;;;20.90;99.90;;;;;;5031201;28;20120;-63
2022/08/26 03:37:42;;;;;;;8.48;2.30;;;20.90;99.90;;;;;;5022054;28;20073;-63
2022/08/26 03:40:09;;;;;;;12.27;1.98;;;20.90;99.90;;;;;;5030564;28;20045;-63
2022/08/26 03:42:37;;;;;;;9.38;1.77;;;20.80;99.90;;;;;;5031163;28;20042;-64
2022/08/26 03:45:04;;;;;;;7.60;2.00;;;20.70;99.90;;;;;;5028436;28;20049;-63
2022/08/26 03:47:30;;;;;;;19.15;2.50;;;20.80;99.90;;;;;;5024488;28;20499;-63
2022/08/26 03:49:58;;;;;;;14.02;2.28;;;20.90;99.90;;;;;;5028490;28;20037;-63
2022/08/26 03:52:23;;;;;;;11.50;2.08;;;20.80;99.90;;;;;;5030760;28;20038;-63
2022/08/26 03:54:49;;;;;;;14.52;2.10;;;20.80;99.90;;;;;;5021825;28;20705;-63
2022/08/26 03:57:14;;;;;;;13.18;2.15;;;20.80;99.90;;;;;;5024288;28;20029;-63
2022/08/26 03:59:40;;;;;;;12.65;2.53;;;20.60;99.90;;;;;;5026390;28;20052;-63
2022/08/26 04:02:05;;;;;;;8.48;2.28;;;20.70;99.90;;;;;;5030804;28;20051;-63
2022/08/26 04:04:31;;;;;;;15.57;2.80;;;20.60;99.90;;;;;;5030887;28;20041;-63
2022/08/26 04:06:58;;;;;;;13.18;2.60;;;20.90;99.90;;;;;;5029555;28;20128;-63
2022/08/26 04:09:24;;;;;;;12.30;2.47;;;20.80;99.90;;;;;;5026206;28;20049;-64
2022/08/26 04:11:50;;;;;;;14.85;2.10;;;20.80;99.90;;;;;;5030619;28;20165;-63
2022/08/26 04:14:19;;;;;;;13.48;2.38;;;20.80;99.90;;;;;;5030951;28;20431;-63
2022/08/26 04:16:45;;;;;;;11.20;2.55;;;20.80;99.90;;;;;;5027942;28;20084;-63
2022/08/26 04:19:13;;;;;;;16.75;2.50;;;20.50;99.90;;;;;;5017194;28;20079;-63
2022/08/26 04:21:40;;;;;;;13.82;2.20;;;20.60;99.90;;;;;;5029215;28;20038;-63
2022/08/26 04:24:07;;;;;;;15.32;2.70;;;20.60;99.90;;;;;;5031034;28;20507;-63
2022/08/26 04:26:36;;;;;;;10.20;2.15;;;20.60;99.90;;;;;;5025287;28;20177;-63
2022/08/26 04:29:04;;;;;;;12.10;2.03;;;20.50;99.90;;;;;;5029824;28;20037;-63
2022/08/26 04:31:31;;;;;;;9.50;2.08;;;21.00;99.90;;;;;;5030631;28;20085;-63
2022/08/26 04:33:58;;;;;;;11.85;2.42;;;20.70;99.90;;;;;;5031452;28;20052;-63
2022/08/26 04:36:23;;;;;;;9.10;1.95;;;20.60;99.90;;;;;;5028379;28;20368;-63
2022/08/26 04:38:49;;;;;;;9.27;2.42;;;20.80;99.90;;;;;;5023263;28;20049;-63
2022/08/26 04:41:16;;;;;;;11.70;2.03;;;20.60;99.90;;;;;;5014134;28;20562;-63
2022/08/26 04:43:43;;;;;;;8.65;1.80;;;20.60;99.90;;;;;;5033078;28;20103;-63
2022/08/26 04:46:10;;;;;;;11.77;1.98;;;20.80;99.90;;;;;;5033451;28;20033;-63
2022/08/26 04:48:36;;;;;;;8.48;2.00;;;20.70;99.90;;;;;;5024488;28;20108;-63
2022/08/26 04:51:03;;;;;;;8.10;1.73;;;20.80;99.90;;;;;;5017251;28;20033;-63
2022/08/26 04:53:29;;;;;;;8.38;1.90;;;20.70;99.90;;;;;;5034288;28;20041;-63
2022/08/26 04:55:55;;;;;;;14.68;1.67;;;20.80;99.90;;;;;;5024585;28;20099;-63
2022/08/26 04:58:23;;;;;;;11.65;2.30;;;20.70;99.90;;;;;;5027056;28;20029;-63
2022/08/26 05:00:50;;;;;;;9.38;1.48;;;20.90;99.90;;;;;;5033605;28;20045;-64
2022/08/26 05:03:17;;;;;;;10.60;1.83;;;20.60;99.90;;;;;;5033059;28;20102;-63
2022/08/26 05:05:45;;;;;;;6.25;1.20;;;20.60;99.90;;;;;;5032628;28;20561;-63
2022/08/26 05:08:12;;;;;;;7.70;1.65;;;20.80;99.90;;;;;;5028222;28;20390;-63
2022/08/26 05:10:43;;;;;;;9.80;1.80;;;20.80;99.90;;;;;;5014144;28;20518;-63
2022/08/26 05:13:10;;;;;;;9.88;1.90;;;20.60;99.90;;;;;;5026528;28;20448;-63
2022/08/26 05:15:36;;;;;;;9.45;1.60;;;20.60;99.90;;;;;;5027228;28;20499;-63
2022/08/26 05:18:06;;;;;;;7.00;1.58;;;20.70;99.90;;;;;;5028332;28;20041;-63
2022/08/26 05:20:37;;;;;;;7.38;1.90;;;20.90;99.90;;;;;;5033540;28;20045;-63
2022/08/26 05:23:03;;;;;;;14.57;2.58;;;20.90;99.90;;;;;;5033797;28;20127;-63
2022/08/26 05:25:29;;;;;;;11.23;2.28;;;20.80;99.90;;;;;;5028645;28;20037;-63
2022/08/26 05:27:55;;;;;;;12.25;2.20;;;20.80;99.90;;;;;;5022200;28;20033;-63
2022/08/26 05:30:22;;;;;;;10.15;2.30;;;20.70;99.90;;;;;;5025566;28;20037;-63
2022/08/26 05:32:49;;;;;;;11.65;2.28;;;21.00;99.90;;;;;;5014112;28;20044;-63
2022/08/26 05:35:17;;;;;;;8.75;2.10;;;20.80;99.90;;;;;;5020072;28;20489;-63
2022/08/26 05:37:43;;;;;;;10.20;1.60;;;21.10;99.90;;;;;;5031993;28;20095;-64
2022/08/26 05:40:09;;;;;;;12.57;1.85;;;21.00;99.90;;;;;;5025231;28;20065;-64
2022/08/26 05:42:34;;;;;;;9.45;1.77;;;20.90;99.90;;;;;;5025533;28;20044;-63
2022/08/26 05:45:00;;;;;;;10.32;2.30;;;21.00;99.90;;;;;;5023479;28;20053;-63
2022/08/26 05:47:26;;;;;;;10.93;2.70;;;20.90;99.90;;;;;;5021840;28;20037;-64
2022/08/26 05:49:52;;;;;;;11.82;2.33;;;21.00;99.90;;;;;;5023481;28;20402;-65
2022/08/26 05:52:18;;;;;;;11.82;2.17;;;21.10;99.90;;;;;;5030072;28;20045;-64
2022/08/26 05:54:44;;;;;;;10.55;2.25;;;21.10;99.90;;;;;;5032543;28;20037;-64
2022/08/26 05:57:11;;;;;;;11.25;2.33;;;21.10;99.90;;;;;;5031471;28;20528;-63
2022/08/26 05:59:37;;;;;;;9.70;1.85;;;21.10;99.90;;;;;;5036950;28;20506;-63
2022/08/26 06:02:03;;;;;;;8.75;1.67;;;21.00;99.90;;;;;;5026111;28;20106;-63
2022/08/26 06:04:30;;;;;;;12.40;1.60;;;21.10;99.90;;;;;;5030547;28;20667;-63
2022/08/26 06:06:56;;;;;;;10.75;2.40;;;20.90;99.90;;;;;;5024909;28;20132;-63
2022/08/26 06:09:22;;;;;;;8.73;1.90;;;20.90;99.90;;;;;;5024656;28;21017;-64
2022/08/26 06:11:47;;;;;;;11.48;1.95;;;21.00;99.90;;;;;;5026191;28;20045;-63
2022/08/26 06:14:13;;;;;;;6.47;1.70;;;21.10;99.90;;;;;;5031014;28;20087;-63
2022/08/26 06:16:42;;;;;;;6.47;1.73;;;21.20;99.90;;;;;;5031971;28;20121;-63
2022/08/26 06:19:09;;;;;;;5.78;1.63;;;21.20;99.90;;;;;;5025926;28;20069;-64
2022/08/26 06:21:37;;;;;;;7.32;1.77;;;21.20;99.90;;;;;;5045860;28;20041;-64
2022/08/26 06:26:54;;;;;;;7.25;1.80;;;21.40;99.90;;;;;;5024768;28;20049;-63
2022/08/26 06:29:21;;;;;;;10.57;1.75;;;21.50;99.90;;;;;;5025115;28;20034;-63
2022/08/26 06:31:47;;;;;;;8.48;1.52;;;21.20;99.90;;;;;;5027970;28;20050;-63
2022/08/26 06:34:13;;;;;;;9.00;1.88;;;21.30;99.90;;;;;;5026881;28;20083;-63
2022/08/26 06:36:40;;;;;;;6.07;1.30;;;21.40;99.90;;;;;;5027880;28;20037;-63
2022/08/26 06:39:08;;;;;;;10.60;1.60;;;21.20;99.90;;;;;;5024291;28;20026;-63
2022/08/26 06:41:35;;;;;;;7.45;1.90;;;21.60;99.90;;;;;;5025717;28;20142;-62
2022/08/26 06:44:02;;;;;;;7.97;1.70;;;21.40;99.90;;;;;;5028251;28;20041;-63
2022/08/26 06:46:29;;;;;;;11.45;1.90;;;21.30;99.90;;;;;;5024051;28;20059;-63
2022/08/26 06:48:57;;;;;;;5.60;1.40;;;21.20;99.90;;;;;;5026143;28;20079;-63
2022/08/26 06:51:25;;;;;;;9.60;1.55;;;21.30;99.90;;;;;;5027819;28;20049;-64
2022/08/26 06:53:53;;;;;;;5.90;1.13;;;21.30;99.90;;;;;;5023132;28;20046;-63
2022/08/26 06:56:22;;;;;;;5.40;1.30;;;21.10;99.90;;;;;;5022993;28;20033;-64
2022/08/26 06:58:48;;;;;;;11.05;1.88;;;21.10;99.90;;;;;;5029508;28;20079;-64
2022/08/26 07:01:25;;;;;;;3.67;1.27;;;21.10;99.90;;;;;;5020142;28;20033;-64
2022/08/26 07:03:53;;;;;;;7.22;1.63;;;21.20;99.90;;;;;;5042787;28;20091;-64
2022/08/26 07:06:20;;;;;;;4.32;1.15;;;21.20;99.90;;;;;;5028958;28;20068;-64
2022/08/26 07:08:46;;;;;;;8.65;1.55;;;21.00;99.90;;;;;;5027251;28;20159;-64
2022/08/26 07:11:12;;;;;;;7.40;2.55;;;21.10;99.90;;;;;;5029230;28;20483;-63
2022/08/26 07:13:38;;;;;;;7.72;1.60;;;21.20;99.90;;;;;;5026170;28;20075;-63
2022/08/26 07:16:11;;;;;;;7.78;1.67;;;21.00;99.90;;;;;;5031353;28;20041;-64
2022/08/26 07:18:37;;;;;;;9.40;1.92;;;20.90;99.90;;;;;;5027547;28;20038;-64
2022/08/26 07:21:05;;;;;;;11.95;1.83;;;21.10;99.90;;;;;;5029068;28;20084;-64
2022/08/26 07:23:31;;;;;;;4.90;0.88;;;20.80;99.90;;;;;;5024563;28;20108;-64
2022/08/26 07:25:57;;;;;;;9.98;1.92;;;20.90;99.90;;;;;;5025602;28;20045;-64
2022/08/26 07:28:23;;;;;;;11.27;1.83;;;20.90;99.90;;;;;;5027609;28;20060;-64
2022/08/26 07:30:48;;;;;;;11.32;1.90;;;20.90;99.90;;;;;;5023582;28;20546;-64
2022/08/26 07:33:15;;;;;;;6.72;1.65;;;21.00;99.90;;;;;;5027247;28;20034;-64
2022/08/26 07:35:41;;;;;;;6.78;1.45;;;20.80;99.90;;;;;;5022209;28;20387;-64
2022/08/26 07:38:07;;;;;;;9.20;1.40;;;20.90;99.90;;;;;;5023133;28;20037;-66
2022/08/26 07:40:32;;;;;;;3.08;0.90;;;20.90;99.90;;;;;;5024774;28;20034;-63
2022/08/26 07:42:58;;;;;;;8.00;1.40;;;20.80;99.90;;;;;;5018708;28;20499;-64
2022/08/26 07:45:24;;;;;;;5.38;1.20;;;20.90;99.90;;;;;;5024433;28;20094;-64
2022/08/26 07:47:50;;;;;;;7.15;1.50;;;20.90;99.90;;;;;;5023962;28;20083;-63
2022/08/26 07:50:15;;;;;;;6.53;1.30;;;20.90;99.90;;;;;;5024466;28;20579;-64
2022/08/26 07:52:41;;;;;;;8.43;2.47;;;21.10;99.90;;;;;;5031224;28;20037;-64
2022/08/26 07:55:07;;;;;;;6.20;1.13;;;21.00;99.90;;;;;;5024863;28;20072;-64
2022/08/26 07:57:33;;;;;;;7.50;1.40;;;21.10;99.90;;;;;;5029732;28;20445;-64
2022/08/26 07:59:59;;;;;;;3.67;1.23;;;21.30;99.90;;;;;;5024531;28;20137;-64
2022/08/26 08:02:27;;;;;;;5.40;1.58;;;21.30;99.90;;;;;;5024528;28;20406;-64
2022/08/26 08:04:54;;;;;;;3.85;1.00;;;21.50;99.90;;;;;;5021058;28;20046;-64
2022/08/26 08:07:20;;;;;;;9.57;1.88;;;21.60;99.90;;;;;;5011598;28;20369;-64
2022/08/26 08:09:48;;;;;;;9.80;1.45;;;21.60;99.90;;;;;;5022641;28;20079;-64
2022/08/26 08:12:14;;;;;;;8.02;1.45;;;21.40;99.90;;;;;;5033371;28;20033;-64
2022/08/26 08:14:44;;;;;;;4.75;1.75;;;21.60;99.90;;;;;;5033895;28;20033;-64
2022/08/26 08:17:10;;;;;;;6.97;1.65;;;21.60;99.90;;;;;;5029487;28;20068;-64
2022/08/26 08:19:35;;;;;;;6.90;1.55;;;21.40;99.90;;;;;;5029668;28;20029;-64
2022/08/26 08:22:03;;;;;;;7.85;1.30;;;21.40;99.90;;;;;;5032673;28;20509;-64
2022/08/26 08:24:32;;;;;;;8.85;1.63;;;21.40;99.90;;;;;;5032074;28;20045;-64
2022/08/26 08:26:59;;;;;;;6.22;1.40;;;21.40;99.90;;;;;;5031642;28;20045;-64
2022/08/26 08:29:28;;;;;;;3.65;0.93;;;21.40;99.90;;;;;;5032610;28;20387;-64
2022/08/26 08:31:54;;;;;;;6.47;1.38;;;21.40;99.90;;;;;;5032809;28;20080;-64
2022/08/26 08:34:20;;;;;;;4.32;1.15;;;21.50;99.90;;;;;;5032760;28;20495;-64
2022/08/26 08:36:46;;;;;;;5.32;1.23;;;21.60;99.90;;;;;;5021592;28;20103;-64
2022/08/26 08:39:12;;;;;;;4.38;1.20;;;21.60;99.90;;;;;;5033475;28;20040;-64
2022/08/26 08:42:03;;;;;;;6.20;1.27;;;21.50;99.90;;;;;;5019967;28;20139;-65
2022/08/26 08:44:29;;;;;;;7.25;1.50;;;21.50;99.90;;;;;;5030373;28;20111;-64
2022/08/26 08:47:02;;;;;;;7.88;1.60;;;21.40;99.90;;;;;;5023979;28;20050;-64
2022/08/26 08:49:29;;;;;;;5.13;1.42;;;21.50;99.90;;;;;;5017312;28;20045;-64
2022/08/26 08:52:05;;;;;;;3.97;1.02;;;21.50;99.90;;;;;;5033424;28;20044;-64
2022/08/26 08:54:31;;;;;;;5.13;1.23;;;21.50;99.90;;;;;;5033020;28;20038;-64
2022/08/26 08:57:23;;;;;;;7.70;1.50;;;21.40;99.90;;;;;;5033365;28;20352;-64
2022/08/26 08:59:57;;;;;;;3.53;1.45;;;21.40;99.90;;;;;;5022076;28;20033;-64
2022/08/26 09:02:31;;;;;;;7.82;1.80;;;21.30;99.90;;;;;;5018683;28;20077;-64
2022/08/26 09:05:09;;;;;;;8.75;1.50;;;21.30;99.90;;;;;;5014283;28;20034;-64
2022/08/26 09:07:36;;;;;;;6.47;1.48;;;21.50;99.90;;;;;;5020783;28;20045;-64
2022/08/26 09:10:22;;;;;;;4.25;1.42;;;21.40;99.90;;;;;;5028251;28;20053;-64
2022/08/26 09:12:49;;;;;;;5.53;1.40;;;21.50;99.90;;;;;;5035743;28;20059;-64
2022/08/26 09:15:22;;;;;;;6.90;1.27;;;21.60;99.90;;;;;;5033540;28;20037;-64
2022/08/26 09:18:18;;;;;;;8.90;1.73;;;21.60;99.90;;;;;;5020966;28;20034;-64
2022/08/26 09:20:56;;;;;;;10.07;1.50;;;21.70;99.90;;;;;;5023044;28;20038;-64
2022/08/26 09:23:22;;;;;;;4.32;1.10;;;21.70;99.90;;;;;;5013976;28;20511;-64
2022/08/26 09:25:54;;;;;;;11.05;2.10;;;21.70;99.90;;;;;;5023831;28;20052;-64
2022/08/26 09:28:22;;;;;;;11.18;2.10;;;21.70;99.90;;;;;;5026904;28;20045;-64
2022/08/26 09:31:26;;;;;;;6.45;1.10;;;21.70;99.90;;;;;;5031672;28;20095;-64
2022/08/26 09:34:13;;;;;;;9.27;1.80;;;21.80;99.90;;;;;;5023374;28;20056;-64
2022/08/26 09:36:59;;;;;;;4.50;1.20;;;21.80;99.90;;;;;;5029211;28;20037;-64
2022/08/26 09:39:24;;;;;;;7.87;1.57;;;21.60;99.90;;;;;;5022803;28;20404;-64
2022/08/26 09:42:15;;;;;;;5.32;1.45;;;21.70;99.90;;;;;;5027800;28;20060;-64
2022/08/26 09:45:07;;;;;;;5.68;1.25;;;21.60;99.90;;;;;;5013426;28;20048;-64
2022/08/26 09:47:37;;;;;;;7.35;1.40;;;21.70;99.90;;;;;;5027291;28;20044;-64
2022/08/26 09:50:25;;;;;;;5.03;1.13;;;21.70;99.90;;;;;;5032143;28;20048;-64
2022/08/26 09:53:13;;;;;;;7.63;1.45;;;21.80;99.90;;;;;;5028446;28;20488;-64
2022/08/26 09:55:41;;;;;;;7.78;1.50;;;21.70;99.90;;;;;;5031335;28;20052;-64
2022/08/26 09:58:11;;;;;;;5.75;1.45;;;21.80;99.90;;;;;;5030126;28;20509;-64
2022/08/26 10:00:52;;;;;;;5.43;1.10;;;21.80;99.90;;;;;;5027494;28;20045;-64
2022/08/26 10:03:26;;;;;;;4.35;1.30;;;22.00;99.90;;;;;;5023656;28;20041;-66
2022/08/26 10:06:00;;;;;;;5.18;1.33;;;22.00;99.90;;;;;;5030013;28;20064;-64
2022/08/26 10:08:41;;;;;;;2.28;0.77;;;22.10;99.90;;;;;;5025631;28;20037;-67
2022/08/26 10:11:37;;;;;;;7.00;1.70;;;22.20;99.90;;;;;;5024130;28;20049;-64
2022/08/26 10:14:12;;;;;;;8.15;1.98;;;22.40;99.90;;;;;;5020558;28;20080;-64
2022/08/26 10:17:02;;;;;;;3.63;1.30;;;22.40;99.90;;;;;;5027675;28;20115;-64
2022/08/26 10:19:36;;;;;;;6.15;1.75;;;22.30;99.90;;;;;;5028801;28;20084;-64
2022/08/26 10:22:39;;;;;;;4.80;1.38;;;22.40;99.90;;;;;;5026542;28;20052;-64
2022/08/26 10:25:11;;;;;;;5.97;1.60;;;22.40;99.90;;;;;;5027763;28;20061;-64
2022/08/26 10:28:08;;;;;;;8.55;1.85;;;22.30;99.90;;;;;;5027634;28;20082;-64
2022/08/26 10:30:41;;;;;;;5.60;1.60;;;22.20;99.90;;;;;;5027706;28;20482;-64
2022/08/26 10:33:09;;;;;;;5.80;1.60;;;22.10;99.90;;;;;;5023981;28;20041;-64
2022/08/26 10:35:42;;;;;;;7.95;2.53;;;22.00;99.90;;;;;;5027876;28;20064;-64
2022/08/26 10:38:15;;;;;;;8.02;1.85;;;22.30;99.90;;;;;;5021309;28;20038;-64
2022/08/26 10:41:03;;;;;;;5.65;1.75;;;22.00;99.90;;;;;;5036111;28;20037;-64
2022/08/26 10:43:36;;;;;;;4.93;1.42;;;22.00;99.90;;;;;;5029345;28;20041;-64
2022/08/26 10:46:08;;;;;;;10.40;2.35;;;21.70;99.90;;;;;;5026271;28;20060;-64
2022/08/26 10:48:46;;;;;;;6.30;1.65;;;21.80;99.90;;;;;;5024704;28;20121;-64
2022/08/26 10:51:17;;;;;;;8.77;1.67;;;21.80;99.90;;;;;;5025318;28;20076;-64
2022/08/26 10:53:46;;;;;;;5.45;1.40;;;22.00;99.90;;;;;;5025679;28;20613;-64
2022/08/26 10:56:38;;;;;;;8.30;1.40;;;22.10;99.90;;;;;;5026520;28;20522;-64
2022/08/26 10:59:11;;;;;;;2.83;1.10;;;22.00;99.90;;;;;;5028320;28;20065;-64
2022/08/26 11:01:49;;;;;;;3.75;1.08;;;22.00;99.90;;;;;;5028122;28;20040;-64
2022/08/26 11:04:37;;;;;;;4.18;1.40;;;22.00;99.90;;;;;;5025572;28;20061;-64
2022/08/26 11:07:41;;;;;;;4.90;1.30;;;22.00;99.90;;;;;;5024075;28;20562;-65
2022/08/26 11:10:19;;;;;;;4.88;1.40;;;22.20;99.90;;;;;;5028830;28;20049;-64
2022/08/26 11:12:44;;;;;;;4.85;1.20;;;22.30;99.90;;;;;;5023375;28;20049;-66
2022/08/26 11:15:30;;;;;;;7.07;1.70;;;22.40;99.90;;;;;;5025702;28;20087;-64
2022/08/26 11:18:02;;;;;;;9.77;1.40;;;22.50;99.90;;;;;;5025511;28;20034;-64
2022/08/26 11:20:44;;;;;;;4.78;1.52;;;22.90;99.90;;;;;;5027545;28;20045;-64
2022/08/26 11:23:21;;;;;;;3.92;1.20;;;22.50;99.90;;;;;;5028389;28;20403;-64
2022/08/26 11:26:08;;;;;;;3.55;1.20;;;22.50;99.90;;;;;;5026342;28;20045;-64
2022/08/26 11:28:36;;;;;;;5.40;1.40;;;22.60;99.90;;;;;;5025176;28;20041;-64
2022/08/26 11:31:03;;;;;;;7.75;1.48;;;22.60;99.90;;;;;;5028418;28;20038;-64
2022/08/26 11:33:55;;;;;;;2.83;1.25;;;22.50;99.90;;;;;;5027937;28;20447;-64
2022/08/26 11:36:36;;;;;;;4.43;1.25;;;22.30;99.90;;;;;;5027296;28;20134;-64
2022/08/26 11:39:13;;;;;;;4.47;1.23;;;22.30;99.90;;;;;;5020575;28;20124;-64
2022/08/26 11:41:42;;;;;;;9.80;1.77;;;22.40;99.90;;;;;;5031496;28;20106;-64
2022/08/26 11:44:08;;;;;;;7.57;1.20;;;22.60;99.90;;;;;;5025914;28;20376;-64
2022/08/26 11:46:36;;;;;;;5.35;1.25;;;22.40;99.90;;;;;;5026784;28;20094;-64
2022/08/26 11:49:05;;;;;;;6.32;1.30;;;22.20;99.90;;;;;;5026326;28;20692;-64
2022/08/26 11:51:32;;;;;;;5.65;1.58;;;22.20;99.90;;;;;;5041448;28;20487;-64
2022/08/26 11:54:15;;;;;;;4.78;1.35;;;22.10;99.90;;;;;;5033157;28;20060;-64
2022/08/26 11:56:44;;;;;;;8.75;1.40;;;22.10;99.90;;;;;;5022558;28;20562;-64
2022/08/26 11:59:16;;;;;;;4.75;1.50;;;22.20;99.90;;;;;;5021632;28;20022;-64
2022/08/26 12:01:44;;;;;;;9.90;1.80;;;21.90;99.90;;;;;;5039665;28;20053;-64
2022/08/26 12:04:20;;;;;;;5.60;1.33;;;21.90;99.90;;;;;;5031915;28;20056;-64
2022/08/26 12:06:49;;;;;;;6.95;2.10;;;21.90;99.90;;;;;;5028795;28;20060;-64
2022/08/26 12:09:22;;;;;;;6.82;1.60;;;21.90;99.90;;;;;;5030944;28;20087;-64
2022/08/26 12:11:48;;;;;;;9.00;1.67;;;21.80;99.90;;;;;;5032163;28;20080;-65
2022/08/26 12:14:20;;;;;;;6.78;1.17;;;21.80;99.90;;;;;;5022764;28;20034;-65
2022/08/26 12:16:46;;;;;;;11.05;1.50;;;21.90;99.90;;;;;;5034127;28;20048;-63
2022/08/26 12:19:28;;;;;;;6.60;1.52;;;22.00;99.90;;;;;;5031501;28;20049;-64
2022/08/26 12:22:06;;;;;;;3.75;1.45;;;22.00;99.90;;;;;;5029462;28;20414;-64
2022/08/26 12:24:32;;;;;;;8.80;1.52;;;21.90;99.90;;;;;;5032202;28;20041;-64
2022/08/26 12:27:12;;;;;;;7.38;1.42;;;21.90;99.90;;;;;;5033759;28;20049;-64
2022/08/26 12:29:38;;;;;;;9.82;1.40;;;21.70;99.90;;;;;;5029795;28;20103;-64
2022/08/26 12:32:13;;;;;;;6.38;1.58;;;21.90;99.90;;;;;;5032345;28;20334;-64
2022/08/26 12:34:44;;;;;;;7.68;1.58;;;21.80;99.90;;;;;;5022262;28;20033;-65
2022/08/26 12:37:12;;;;;;;13.63;3.05;;;21.70;99.90;;;;;;5019851;28;20092;-64
2022/08/26 12:39:41;;;;;;;4.25;1.20;;;21.80;99.90;;;;;;5023513;28;20026;-64
2022/08/26 12:42:14;;;;;;;8.85;1.73;;;21.80;99.90;;;;;;5032286;28;20045;-65
2022/08/26 12:44:44;;;;;;;6.53;1.55;;;21.60;99.90;;;;;;5032721;28;20102;-65
2022/08/26 12:47:21;;;;;;;8.18;1.70;;;21.60;99.90;;;;;;5022104;28;20407;-64
2022/08/26 12:49:48;;;;;;;10.85;2.03;;;21.60;99.90;;;;;;5033115;28;20519;-65
2022/08/26 12:52:30;;;;;;;5.97;1.50;;;21.70;99.90;;;;;;5032370;28;20329;-65
2022/08/26 12:55:05;;;;;;;7.50;1.70;;;21.60;99.90;;;;;;5032366;28;20044;-64
2022/08/26 12:57:34;;;;;;;;;;;21.60;99.90;;;;;;5032488;28;20045;-64
2022/08/26 13:00:23;;;;;;;8.07;1.75;;;21.50;99.90;;;;;;5032405;28;19970;-64
2022/08/26 13:02:49;;;;;;;7.95;1.80;;;21.50;99.90;;;;;;5029303;28;20565;-65